sensor_id;sensor_type;location;lat;lon;timestamp;temperature;humidity
65040;HTU21D;51606;45.000;38.612;2022-08-03T06:59:58;39.39;51.27
65040;HTU21D;51606;45.000;38.612;2022-08-03T07:02:29;38.41;52.75
65040;HTU21D;51606;45.000;38.612;2022-08-03T10:28:24;31.06;56.55
65040;HTU21D;51606;45.000;38.612;2022-08-03T10:30:52;31.07;56.63
65040;HTU21D;51606;45.000;38.612;2022-08-03T10:33:23;31.08;56.63
65040;HTU21D;51606;45.000;38.612;2022-08-03T10:35:52;31.13;56.55
65040;HTU21D;51606;45.000;38.612;2022-08-03T10:38:22;31.11;56.58
65040;HTU21D;51606;45.000;38.612;2022-08-03T10:40:53;31.22;56.45
65040;HTU21D;51606;45.000;38.612;2022-08-03T10:43:25;31.36;56.17
65040;HTU21D;51606;45.000;38.612;2022-08-03T10:45:52;31.43;56.05
65040;HTU21D;51606;45.000;38.612;2022-08-03T10:48:19;31.42;56.08
65040;HTU21D;51606;45.000;38.612;2022-08-03T10:50:48;31.48;56.10
65040;HTU21D;51606;45.000;38.612;2022-08-03T10:53:14;31.56;56.03
65040;HTU21D;51606;45.000;38.612;2022-08-03T10:55:43;31.66;55.95
65040;HTU21D;51606;45.000;38.612;2022-08-03T11:01:08;31.81;55.95
65040;HTU21D;51606;45.000;38.612;2022-08-03T11:06:23;32.00;55.87
65040;HTU21D;51606;45.000;38.612;2022-08-03T11:11:38;32.04;55.99
65040;HTU21D;51606;45.000;38.612;2022-08-03T11:14:19;32.03;56.09
65040;HTU21D;51606;45.000;38.612;2022-08-03T11:17:04;32.03;56.23
65040;HTU21D;51606;45.000;38.612;2022-08-03T11:19:45;32.19;56.03
65040;HTU21D;51606;45.000;38.612;2022-08-03T11:22:14;32.30;55.91
65040;HTU21D;51606;45.000;38.612;2022-08-03T11:35:09;32.70;55.50
65040;HTU21D;51606;45.000;38.612;2022-08-03T11:48:26;33.00;55.19
65040;HTU21D;51606;45.000;38.612;2022-08-03T11:50:53;33.05;55.12
65040;HTU21D;51606;45.000;38.612;2022-08-03T11:53:19;33.04;55.11
65040;HTU21D;51606;45.000;38.612;2022-08-03T11:55:48;33.04;55.08
65040;HTU21D;51606;45.000;38.612;2022-08-03T11:58:16;32.99;55.14
65040;HTU21D;51606;45.000;38.612;2022-08-03T12:00:42;33.06;55.04
65040;HTU21D;51606;45.000;38.612;2022-08-03T12:03:11;33.17;54.82
65040;HTU21D;51606;45.000;38.612;2022-08-03T12:05:52;33.17;54.88
65040;HTU21D;51606;45.000;38.612;2022-08-03T12:08:28;33.22;54.80
65040;HTU21D;51606;45.000;38.612;2022-08-03T12:10:58;33.31;54.68
65040;HTU21D;51606;45.000;38.612;2022-08-03T12:13:24;33.43;54.55
65040;HTU21D;51606;45.000;38.612;2022-08-03T12:15:56;33.42;54.59
65040;HTU21D;51606;45.000;38.612;2022-08-03T12:18:23;33.40;54.64
65040;HTU21D;51606;45.000;38.612;2022-08-03T12:20:51;33.32;54.76
65040;HTU21D;51606;45.000;38.612;2022-08-03T12:23:18;33.17;54.97
65040;HTU21D;51606;45.000;38.612;2022-08-03T12:25:46;32.93;55.28
65040;HTU21D;51606;45.000;38.612;2022-08-03T12:28:16;32.85;55.33
65040;HTU21D;51606;45.000;38.612;2022-08-03T12:30:51;32.81;55.29
65040;HTU21D;51606;45.000;38.612;2022-08-03T12:33:25;32.73;55.31
65040;HTU21D;51606;45.000;38.612;2022-08-03T12:36:07;32.57;55.49
65040;HTU21D;51606;45.000;38.612;2022-08-03T12:38:36;32.49;55.52
65040;HTU21D;51606;45.000;38.612;2022-08-03T12:41:08;32.37;55.61
65040;HTU21D;51606;45.000;38.612;2022-08-03T12:43:47;32.11;55.94
65040;HTU21D;51606;45.000;38.612;2022-08-03T12:46:16;31.98;56.10
65040;HTU21D;51606;45.000;38.612;2022-08-03T12:49:04;31.88;56.03
65040;HTU21D;51606;45.000;38.612;2022-08-03T12:51:33;31.75;56.18
65040;HTU21D;51606;45.000;38.612;2022-08-03T12:54:01;31.71;56.14
65040;HTU21D;51606;45.000;38.612;2022-08-03T12:56:28;31.69;56.14
65040;HTU21D;51606;45.000;38.612;2022-08-03T12:58:54;31.56;56.26
65040;HTU21D;51606;45.000;38.612;2022-08-03T13:01:21;31.43;56.40
65040;HTU21D;51606;45.000;38.612;2022-08-03T13:03:50;31.37;56.46
65040;HTU21D;51606;45.000;38.612;2022-08-03T13:06:23;31.36;56.42
65040;HTU21D;51606;45.000;38.612;2022-08-03T13:09:10;31.45;56.28
65040;HTU21D;51606;45.000;38.612;2022-08-03T13:11:36;31.68;55.93
65040;HTU21D;51606;45.000;38.612;2022-08-03T13:14:03;31.95;55.49
65040;HTU21D;51606;45.000;38.612;2022-08-03T13:16:29;32.07;55.33
65040;HTU21D;51606;45.000;38.612;2022-08-03T13:18:56;32.17;55.29
65040;HTU21D;51606;45.000;38.612;2022-08-03T13:21:23;32.27;55.21
65040;HTU21D;51606;45.000;38.612;2022-08-03T13:23:49;32.38;55.16
65040;HTU21D;51606;45.000;38.612;2022-08-03T13:26:17;32.43;55.20
65040;HTU21D;51606;45.000;38.612;2022-08-03T13:28:43;32.54;55.18
65040;HTU21D;51606;45.000;38.612;2022-08-03T13:31:10;32.76;54.93
65040;HTU21D;51606;45.000;38.612;2022-08-03T13:33:36;32.96;54.75
65040;HTU21D;51606;45.000;38.612;2022-08-03T13:36:04;33.18;54.55
65040;HTU21D;51606;45.000;38.612;2022-08-03T13:38:30;33.47;54.26
65040;HTU21D;51606;45.000;38.612;2022-08-03T13:40:57;33.76;53.94
65040;HTU21D;51606;45.000;38.612;2022-08-03T13:43:26;33.99;53.73
65040;HTU21D;51606;45.000;38.612;2022-08-03T13:45:52;34.10;53.68
65040;HTU21D;51606;45.000;38.612;2022-08-03T13:48:18;34.20;53.66
65040;HTU21D;51606;45.000;38.612;2022-08-03T13:50:45;34.27;53.68
65040;HTU21D;51606;45.000;38.612;2022-08-03T13:53:11;34.29;53.78
65040;HTU21D;51606;45.000;38.612;2022-08-03T13:55:38;34.23;53.94
65040;HTU21D;51606;45.000;38.612;2022-08-03T13:58:04;34.08;54.20
65040;HTU21D;51606;45.000;38.612;2022-08-03T14:00:33;33.93;54.49
65040;HTU21D;51606;45.000;38.612;2022-08-03T14:03:01;33.81;54.69
65040;HTU21D;51606;45.000;38.612;2022-08-03T14:05:28;33.74;54.83
65040;HTU21D;51606;45.000;38.612;2022-08-03T14:07:56;33.60;54.98
65040;HTU21D;51606;45.000;38.612;2022-08-03T14:10:23;33.48;55.17
65040;HTU21D;51606;45.000;38.612;2022-08-03T14:12:49;33.38;55.29
65040;HTU21D;51606;45.000;38.612;2022-08-03T14:15:15;33.28;55.37
65040;HTU21D;51606;45.000;38.612;2022-08-03T14:17:42;33.16;55.48
65040;HTU21D;51606;45.000;38.612;2022-08-03T14:20:09;33.06;55.58
65040;HTU21D;51606;45.000;38.612;2022-08-03T14:22:37;32.96;55.67
65040;HTU21D;51606;45.000;38.612;2022-08-03T14:25:04;32.84;55.77
65040;HTU21D;51606;45.000;38.612;2022-08-03T14:27:31;32.72;55.87
65040;HTU21D;51606;45.000;38.612;2022-08-03T14:29:57;32.58;56.03
65040;HTU21D;51606;45.000;38.612;2022-08-03T14:32:26;32.49;56.08
65040;HTU21D;51606;45.000;38.612;2022-08-03T14:34:52;32.44;56.10
65040;HTU21D;51606;45.000;38.612;2022-08-03T14:37:19;32.31;56.22
65040;HTU21D;51606;45.000;38.612;2022-08-03T14:39:45;32.18;56.37
65040;HTU21D;51606;45.000;38.612;2022-08-03T14:42:31;32.07;56.46
65040;HTU21D;51606;45.000;38.612;2022-08-03T14:44:57;31.97;56.52
65040;HTU21D;51606;45.000;38.612;2022-08-03T14:47:24;31.88;56.58
65040;HTU21D;51606;45.000;38.612;2022-08-03T14:49:50;31.79;56.68
65040;HTU21D;51606;45.000;38.612;2022-08-03T14:52:16;31.65;56.79
65040;HTU21D;51606;45.000;38.612;2022-08-03T14:54:44;31.45;57.03
65040;HTU21D;51606;45.000;38.612;2022-08-03T14:57:11;31.20;57.36
65040;HTU21D;51606;45.000;38.612;2022-08-03T14:59:37;30.95;57.64
65040;HTU21D;51606;45.000;38.612;2022-08-03T15:02:03;30.79;57.79
65040;HTU21D;51606;45.000;38.612;2022-08-03T15:04:30;30.64;57.90
65040;HTU21D;51606;45.000;38.612;2022-08-03T15:06:56;30.46;58.05
65040;HTU21D;51606;45.000;38.612;2022-08-03T15:09:23;30.26;58.25
65040;HTU21D;51606;45.000;38.612;2022-08-03T15:11:49;30.07;58.43
65040;HTU21D;51606;45.000;38.612;2022-08-03T15:14:15;29.89;58.63
65040;HTU21D;51606;45.000;38.612;2022-08-03T15:16:42;29.71;58.77
65040;HTU21D;51606;45.000;38.612;2022-08-03T15:19:09;29.53;58.90
65040;HTU21D;51606;45.000;38.612;2022-08-03T15:21:35;29.41;58.97
65040;HTU21D;51606;45.000;38.612;2022-08-03T15:24:01;29.33;58.95
65040;HTU21D;51606;45.000;38.612;2022-08-03T15:26:28;29.22;58.99
65040;HTU21D;51606;45.000;38.612;2022-08-03T15:28:54;29.11;59.06
65040;HTU21D;51606;45.000;38.612;2022-08-03T15:31:22;28.98;59.16
65040;HTU21D;51606;45.000;38.612;2022-08-03T15:33:49;28.83;59.27
65040;HTU21D;51606;45.000;38.612;2022-08-03T15:36:16;28.72;59.40
65040;HTU21D;51606;45.000;38.612;2022-08-03T15:38:44;28.64;59.44
65040;HTU21D;51606;45.000;38.612;2022-08-03T15:41:14;28.57;59.41
65040;HTU21D;51606;45.000;38.612;2022-08-03T15:43:40;28.50;59.38
65040;HTU21D;51606;45.000;38.612;2022-08-03T15:46:07;28.45;59.33
65040;HTU21D;51606;45.000;38.612;2022-08-03T15:48:33;28.42;59.34
65040;HTU21D;51606;45.000;38.612;2022-08-03T15:51:00;28.34;59.38
65040;HTU21D;51606;45.000;38.612;2022-08-03T15:53:26;28.30;59.39
65040;HTU21D;51606;45.000;38.612;2022-08-03T15:55:52;28.24;59.42
65040;HTU21D;51606;45.000;38.612;2022-08-03T15:58:19;28.18;59.48
65040;HTU21D;51606;45.000;38.612;2022-08-03T16:00:45;28.12;59.53
65040;HTU21D;51606;45.000;38.612;2022-08-03T16:03:11;28.05;59.58
65040;HTU21D;51606;45.000;38.612;2022-08-03T16:05:38;27.99;59.64
65040;HTU21D;51606;45.000;38.612;2022-08-03T16:08:04;27.90;59.72
65040;HTU21D;51606;45.000;38.612;2022-08-03T16:10:31;27.81;59.84
65040;HTU21D;51606;45.000;38.612;2022-08-03T16:12:58;27.70;59.96
65040;HTU21D;51606;45.000;38.612;2022-08-03T16:15:24;27.60;60.07
65040;HTU21D;51606;45.000;38.612;2022-08-03T16:17:51;27.52;60.15
65040;HTU21D;51606;45.000;38.612;2022-08-03T16:20:17;27.42;60.26
65040;HTU21D;51606;45.000;38.612;2022-08-03T16:22:46;27.32;60.37
65040;HTU21D;51606;45.000;38.612;2022-08-03T16:25:14;27.23;60.47
65040;HTU21D;51606;45.000;38.612;2022-08-03T16:27:41;27.12;60.58
65040;HTU21D;51606;45.000;38.612;2022-08-03T16:30:10;27.02;60.69
65040;HTU21D;51606;45.000;38.612;2022-08-03T16:32:37;26.90;60.83
65040;HTU21D;51606;45.000;38.612;2022-08-03T16:35:05;26.78;60.98
65040;HTU21D;51606;45.000;38.612;2022-08-03T16:37:32;26.65;61.12
65040;HTU21D;51606;45.000;38.612;2022-08-03T16:39:59;26.53;61.25
65040;HTU21D;51606;45.000;38.612;2022-08-03T16:42:25;26.41;61.38
65040;HTU21D;51606;45.000;38.612;2022-08-03T16:44:51;26.30;61.50
65040;HTU21D;51606;45.000;38.612;2022-08-03T16:47:18;26.20;61.60
65040;HTU21D;51606;45.000;38.612;2022-08-03T16:49:44;26.10;61.71
65040;HTU21D;51606;45.000;38.612;2022-08-03T16:52:10;25.98;61.83
65040;HTU21D;51606;45.000;38.612;2022-08-03T16:54:37;25.92;61.89
65040;HTU21D;51606;45.000;38.612;2022-08-03T16:57:03;25.87;61.92
65040;HTU21D;51606;45.000;38.612;2022-08-03T16:59:30;25.81;61.94
65040;HTU21D;51606;45.000;38.612;2022-08-03T17:01:56;25.75;61.99
65040;HTU21D;51606;45.000;38.612;2022-08-03T17:04:22;25.69;62.06
65040;HTU21D;51606;45.000;38.612;2022-08-03T17:06:49;25.61;62.13
65040;HTU21D;51606;45.000;38.612;2022-08-03T17:09:16;25.54;62.18
65040;HTU21D;51606;45.000;38.612;2022-08-03T17:11:48;25.50;62.23
65040;HTU21D;51606;45.000;38.612;2022-08-03T17:14:16;25.46;62.28
65040;HTU21D;51606;45.000;38.612;2022-08-03T17:16:46;25.42;62.28
65040;HTU21D;51606;45.000;38.612;2022-08-03T17:19:13;25.40;62.28
65040;HTU21D;51606;45.000;38.612;2022-08-03T17:21:56;25.40;62.28
65040;HTU21D;51606;45.000;38.612;2022-08-03T17:26:54;25.37;62.24
65040;HTU21D;51606;45.000;38.612;2022-08-03T17:29:22;25.36;62.26
65040;HTU21D;51606;45.000;38.612;2022-08-03T17:31:51;25.36;62.26
65040;HTU21D;51606;45.000;38.612;2022-08-03T17:34:18;25.35;62.28
65040;HTU21D;51606;45.000;38.612;2022-08-03T17:36:45;25.35;62.28
65040;HTU21D;51606;45.000;38.612;2022-08-03T17:39:16;25.35;62.28
65040;HTU21D;51606;45.000;38.612;2022-08-03T17:41:43;25.36;62.24
65040;HTU21D;51606;45.000;38.612;2022-08-03T17:44:10;25.38;62.22
65040;HTU21D;51606;45.000;38.612;2022-08-03T17:46:37;25.38;62.23
65040;HTU21D;51606;45.000;38.612;2022-08-03T17:49:03;25.36;62.28
65040;HTU21D;51606;45.000;38.612;2022-08-03T17:51:35;25.34;62.34
65040;HTU21D;51606;45.000;38.612;2022-08-03T17:54:19;25.31;62.42
65040;HTU21D;51606;45.000;38.612;2022-08-03T17:58:09;25.29;62.48
65040;HTU21D;51606;45.000;38.612;2022-08-03T18:00:08;25.24;62.53
65040;HTU21D;51606;45.000;38.612;2022-08-03T18:05:48;25.14;62.74
65040;HTU21D;51606;45.000;38.612;2022-08-03T18:11:03;25.00;62.98
65040;HTU21D;51606;45.000;38.612;2022-08-03T18:13:58;24.94;63.09
65040;HTU21D;51606;45.000;38.612;2022-08-03T18:16:32;24.86;63.18
65040;HTU21D;51606;45.000;38.612;2022-08-03T18:19:00;24.79;63.24
65040;HTU21D;51606;45.000;38.612;2022-08-03T18:21:27;24.75;63.32
65040;HTU21D;51606;45.000;38.612;2022-08-03T18:23:54;24.68;63.40
65040;HTU21D;51606;45.000;38.612;2022-08-03T18:26:23;24.61;63.51
65040;HTU21D;51606;45.000;38.612;2022-08-03T18:28:53;24.58;63.56
65040;HTU21D;51606;45.000;38.612;2022-08-03T18:31:21;24.54;63.58
65040;HTU21D;51606;45.000;38.612;2022-08-03T18:33:51;24.50;63.63
65040;HTU21D;51606;45.000;38.612;2022-08-03T18:36:18;24.46;63.71
65040;HTU21D;51606;45.000;38.612;2022-08-03T18:38:46;24.40;63.79
65040;HTU21D;51606;45.000;38.612;2022-08-03T18:41:14;24.33;63.90
65040;HTU21D;51606;45.000;38.612;2022-08-03T18:43:44;24.26;64.05
65040;HTU21D;51606;45.000;38.612;2022-08-03T18:49:35;24.12;64.25
65040;HTU21D;51606;45.000;38.612;2022-08-03T18:52:08;24.02;64.39
65040;HTU21D;51606;45.000;38.612;2022-08-03T18:57:12;23.86;64.66
65040;HTU21D;51606;45.000;38.612;2022-08-03T19:04:46;23.62;65.04
65040;HTU21D;51606;45.000;38.612;2022-08-03T19:07:21;23.56;65.16
65040;HTU21D;51606;45.000;38.612;2022-08-03T19:09:52;23.50;65.24
65040;HTU21D;51606;45.000;38.612;2022-08-03T19:12:24;23.43;65.27
65040;HTU21D;51606;45.000;38.612;2022-08-03T19:14:55;23.37;65.36
65040;HTU21D;51606;45.000;38.612;2022-08-03T19:17:25;23.32;65.45
65040;HTU21D;51606;45.000;38.612;2022-08-03T19:19:53;23.26;65.53
65040;HTU21D;51606;45.000;38.612;2022-08-03T19:22:20;23.20;65.60
65040;HTU21D;51606;45.000;38.612;2022-08-03T19:24:47;23.14;65.69
65040;HTU21D;51606;45.000;38.612;2022-08-03T19:27:15;23.09;65.73
65040;HTU21D;51606;45.000;38.612;2022-08-03T19:29:46;23.07;65.82
65040;HTU21D;51606;45.000;38.612;2022-08-03T19:32:16;23.02;65.84
65040;HTU21D;51606;45.000;38.612;2022-08-03T19:34:46;22.99;65.86
65040;HTU21D;51606;45.000;38.612;2022-08-03T19:37:15;22.94;65.90
65040;HTU21D;51606;45.000;38.612;2022-08-03T19:39:42;22.92;65.94
65040;HTU21D;51606;45.000;38.612;2022-08-03T19:42:11;22.86;66.01
65040;HTU21D;51606;45.000;38.612;2022-08-03T19:44:45;22.84;66.07
65040;HTU21D;51606;45.000;38.612;2022-08-03T19:47:25;22.82;66.09
65040;HTU21D;51606;45.000;38.612;2022-08-03T19:49:56;22.78;66.11
65040;HTU21D;51606;45.000;38.612;2022-08-03T19:52:26;22.71;66.18
65040;HTU21D;51606;45.000;38.612;2022-08-03T19:54:55;22.67;66.24
65040;HTU21D;51606;45.000;38.612;2022-08-03T19:57:27;22.62;66.30
65040;HTU21D;51606;45.000;38.612;2022-08-03T19:59:55;22.56;66.38
65040;HTU21D;51606;45.000;38.612;2022-08-03T20:02:22;22.55;66.40
65040;HTU21D;51606;45.000;38.612;2022-08-03T20:04:48;22.52;66.41
65040;HTU21D;51606;45.000;38.612;2022-08-03T20:07:15;22.49;66.46
65040;HTU21D;51606;45.000;38.612;2022-08-03T20:09:42;22.47;66.52
65040;HTU21D;51606;45.000;38.612;2022-08-03T20:12:09;22.44;66.57
65040;HTU21D;51606;45.000;38.612;2022-08-03T20:14:37;22.39;66.65
65040;HTU21D;51606;45.000;38.612;2022-08-03T20:17:05;22.36;66.72
65040;HTU21D;51606;45.000;38.612;2022-08-03T20:19:32;22.32;66.77
65040;HTU21D;51606;45.000;38.612;2022-08-03T20:21:59;22.27;66.81
65040;HTU21D;51606;45.000;38.612;2022-08-03T20:24:27;22.24;66.88
65040;HTU21D;51606;45.000;38.612;2022-08-03T20:26:55;22.21;66.92
65040;HTU21D;51606;45.000;38.612;2022-08-03T20:29:30;22.16;67.00
65040;HTU21D;51606;45.000;38.612;2022-08-03T20:31:59;22.10;67.05
65040;HTU21D;51606;45.000;38.612;2022-08-03T20:34:26;22.04;67.15
65040;HTU21D;51606;45.000;38.612;2022-08-03T20:36:52;22.01;67.24
65040;HTU21D;51606;45.000;38.612;2022-08-03T20:39:19;21.94;67.32
65040;HTU21D;51606;45.000;38.612;2022-08-03T20:41:46;21.91;67.36
65040;HTU21D;51606;45.000;38.612;2022-08-03T20:44:12;21.89;67.39
65040;HTU21D;51606;45.000;38.612;2022-08-03T20:46:39;21.85;67.43
65040;HTU21D;51606;45.000;38.612;2022-08-03T20:49:05;21.83;67.46
65040;HTU21D;51606;45.000;38.612;2022-08-03T20:51:33;21.80;67.52
65040;HTU21D;51606;45.000;38.612;2022-08-03T20:54:04;21.78;67.54
65040;HTU21D;51606;45.000;38.612;2022-08-03T20:56:31;21.76;67.62
65040;HTU21D;51606;45.000;38.612;2022-08-03T20:59:01;21.73;67.65
65040;HTU21D;51606;45.000;38.612;2022-08-03T21:01:27;21.72;67.62
65040;HTU21D;51606;45.000;38.612;2022-08-03T21:03:56;21.72;67.64
65040;HTU21D;51606;45.000;38.612;2022-08-03T21:06:24;21.70;67.68
65040;HTU21D;51606;45.000;38.612;2022-08-03T21:08:54;21.68;67.73
65040;HTU21D;51606;45.000;38.612;2022-08-03T21:11:27;21.66;67.76
65040;HTU21D;51606;45.000;38.612;2022-08-03T21:14:00;21.64;67.83
65040;HTU21D;51606;45.000;38.612;2022-08-03T21:16:28;21.62;67.88
65040;HTU21D;51606;45.000;38.612;2022-08-03T21:18:58;21.59;67.94
65040;HTU21D;51606;45.000;38.612;2022-08-03T21:21:30;21.55;68.01
65040;HTU21D;51606;45.000;38.612;2022-08-03T21:23:58;21.54;68.03
65040;HTU21D;51606;45.000;38.612;2022-08-03T21:26:26;21.58;68.01
65040;HTU21D;51606;45.000;38.612;2022-08-03T21:28:55;21.60;67.97
65040;HTU21D;51606;45.000;38.612;2022-08-03T21:31:22;21.65;67.90
65040;HTU21D;51606;45.000;38.612;2022-08-03T21:34:01;21.72;67.81
65040;HTU21D;51606;45.000;38.612;2022-08-03T21:36:30;21.79;67.68
65040;HTU21D;51606;45.000;38.612;2022-08-03T21:38:57;21.88;67.58
65040;HTU21D;51606;45.000;38.612;2022-08-03T21:41:28;21.93;67.55
65040;HTU21D;51606;45.000;38.612;2022-08-03T21:43:55;21.97;67.49
